sensor_id;sensor_type;location;lat;lon;timestamp;pressure;altitude;pressure_sealevel;temperature;humidity
13478;BME280;12598;62.382;17.344;2023-04-03T00:00:53;103716.78;;;16.01;17.81
13478;BME280;12598;62.382;17.344;2023-04-03T00:01:55;103715.09;;;15.99;17.60
13478;BME280;12598;62.382;17.344;2023-04-03T00:02:57;103716.81;;;16.00;17.64
13478;BME280;12598;62.382;17.344;2023-04-03T00:03:59;103715.97;;;15.99;17.86
13478;BME280;12598;62.382;17.344;2023-04-03T00:05:01;103687.44;;;15.80;17.79
13478;BME280;12598;62.382;17.344;2023-04-03T00:06:04;103702.81;;;15.95;17.78
13478;BME280;12598;62.382;17.344;2023-04-03T00:07:08;103701.19;;;15.91;18.27
13478;BME280;12598;62.382;17.344;2023-04-03T00:08:10;103711.59;;;15.97;17.90
13478;BME280;12598;62.382;17.344;2023-04-03T00:09:12;103719.63;;;15.97;17.95
13478;BME280;12598;62.382;17.344;2023-04-03T00:10:13;103699.59;;;15.87;17.59
13478;BME280;12598;62.382;17.344;2023-04-03T00:11:17;103721.47;;;15.95;17.88
13478;BME280;12598;62.382;17.344;2023-04-03T00:12:19;103718.81;;;15.95;17.76
13478;BME280;12598;62.382;17.344;2023-04-03T00:13:21;103714.66;;;15.88;17.41
13478;BME280;12598;62.382;17.344;2023-04-03T00:14:23;103723.34;;;15.93;17.40
13478;BME280;12598;62.382;17.344;2023-04-03T00:15:24;103719.91;;;15.89;17.86
13478;BME280;12598;62.382;17.344;2023-04-03T00:16:26;103718.94;;;15.92;17.61
13478;BME280;12598;62.382;17.344;2023-04-03T00:17:28;103714.72;;;15.86;17.52
13478;BME280;12598;62.382;17.344;2023-04-03T00:18:31;103712.13;;;15.85;17.82
13478;BME280;12598;62.382;17.344;2023-04-03T00:19:33;103712.84;;;15.88;17.86
13478;BME280;12598;62.382;17.344;2023-04-03T00:20:35;103707.84;;;15.81;17.71
13478;BME280;12598;62.382;17.344;2023-04-03T00:21:37;103720.00;;;15.88;17.73
13478;BME280;12598;62.382;17.344;2023-04-03T00:22:39;103712.94;;;15.87;17.56
13478;BME280;12598;62.382;17.344;2023-04-03T00:23:41;103698.94;;;15.80;17.75
13478;BME280;12598;62.382;17.344;2023-04-03T00:24:43;103713.84;;;15.86;17.50
13478;BME280;12598;62.382;17.344;2023-04-03T00:25:45;103712.94;;;15.87;17.38
13478;BME280;12598;62.382;17.344;2023-04-03T00:26:47;103709.44;;;15.85;17.60
13478;BME280;12598;62.382;17.344;2023-04-03T00:27:49;103710.31;;;15.85;17.92
13478;BME280;12598;62.382;17.344;2023-04-03T00:28:51;103705.03;;;15.84;17.66
13478;BME280;12598;62.382;17.344;2023-04-03T00:29:53;103707.75;;;15.82;17.39
13478;BME280;12598;62.382;17.344;2023-04-03T00:30:55;103710.38;;;15.84;17.56
13478;BME280;12598;62.382;17.344;2023-04-03T00:31:57;103719.31;;;15.83;17.10
13478;BME280;12598;62.382;17.344;2023-04-03T00:32:59;103711.38;;;15.81;18.07
13478;BME280;12598;62.382;17.344;2023-04-03T00:34:02;103705.41;;;15.75;17.77
13478;BME280;12598;62.382;17.344;2023-04-03T00:35:04;103679.22;;;15.63;17.72
13478;BME280;12598;62.382;17.344;2023-04-03T00:36:08;103704.53;;;15.74;17.93
13478;BME280;12598;62.382;17.344;2023-04-03T00:37:11;103728.25;;;15.82;17.64
13478;BME280;12598;62.382;17.344;2023-04-03T00:38:12;103720.28;;;15.80;17.45
13478;BME280;12598;62.382;17.344;2023-04-03T00:39:14;103717.72;;;15.79;17.35
13478;BME280;12598;62.382;17.344;2023-04-03T00:40:17;103716.81;;;15.78;17.63
13478;BME280;12598;62.382;17.344;2023-04-03T00:41:19;103717.88;;;15.74;17.49
13478;BME280;12598;62.382;17.344;2023-04-03T00:42:21;103721.31;;;15.78;17.57
13478;BME280;12598;62.382;17.344;2023-04-03T00:43:25;103701.22;;;15.68;17.38
13478;BME280;12598;62.382;17.344;2023-04-03T00:45:38;103722.25;;;15.77;17.36
13478;BME280;12598;62.382;17.344;2023-04-03T00:46:40;103712.38;;;15.79;17.55
13478;BME280;12598;62.382;17.344;2023-04-03T00:47:43;103690.78;;;15.63;17.77
13478;BME280;12598;62.382;17.344;2023-04-03T00:48:47;103715.16;;;15.76;17.61
13478;BME280;12598;62.382;17.344;2023-04-03T00:49:50;103700.31;;;15.69;17.60
13478;BME280;12598;62.382;17.344;2023-04-03T00:50:53;103713.44;;;15.75;17.39
13478;BME280;12598;62.382;17.344;2023-04-03T00:51:57;103711.69;;;15.74;17.93
13478;BME280;12598;62.382;17.344;2023-04-03T00:53:00;103712.53;;;15.74;17.41
13478;BME280;12598;62.382;17.344;2023-04-03T00:54:05;103714.41;;;15.72;17.90
13478;BME280;12598;62.382;17.344;2023-04-03T00:55:09;103709.03;;;15.74;17.84
13478;BME280;12598;62.382;17.344;2023-04-03T00:56:14;103696.09;;;15.63;17.69
13478;BME280;12598;62.382;17.344;2023-04-03T00:57:17;103704.72;;;15.70;17.44
13478;BME280;12598;62.382;17.344;2023-04-03T00:58:32;103708.19;;;15.72;17.41
13478;BME280;12598;62.382;17.344;2023-04-03T00:59:39;103701.91;;;15.73;17.54
13478;BME280;12598;62.382;17.344;2023-04-03T01:00:49;103706.34;;;15.74;17.49
13478;BME280;12598;62.382;17.344;2023-04-03T01:01:55;103701.91;;;15.73;17.43
13478;BME280;12598;62.382;17.344;2023-04-03T01:02:57;103703.72;;;15.72;17.84
13478;BME280;12598;62.382;17.344;2023-04-03T01:04:01;103699.38;;;15.70;17.47
13478;BME280;12598;62.382;17.344;2023-04-03T01:05:04;103695.09;;;15.66;17.67
13478;BME280;12598;62.382;17.344;2023-04-03T01:06:07;103699.44;;;15.68;17.79
13478;BME280;12598;62.382;17.344;2023-04-03T01:07:16;103703.09;;;15.66;17.44
13478;BME280;12598;62.382;17.344;2023-04-03T01:08:19;103701.22;;;15.68;17.55
13478;BME280;12598;62.382;17.344;2023-04-03T01:09:23;103698.56;;;15.68;17.29
13478;BME280;12598;62.382;17.344;2023-04-03T01:10:25;103704.91;;;15.65;17.72
13478;BME280;12598;62.382;17.344;2023-04-03T01:11:27;103706.69;;;15.65;17.43
13478;BME280;12598;62.382;17.344;2023-04-03T01:12:33;103700.56;;;15.63;17.39
13478;BME280;12598;62.382;17.344;2023-04-03T01:13:35;103704.03;;;15.65;17.38
13478;BME280;12598;62.382;17.344;2023-04-03T01:14:40;103707.63;;;15.64;17.67
13478;BME280;12598;62.382;17.344;2023-04-03T01:15:42;103654.63;;;15.33;17.69
13478;BME280;12598;62.382;17.344;2023-04-03T01:16:53;103700.56;;;15.63;17.86
13478;BME280;12598;62.382;17.344;2023-04-03T01:17:57;103704.16;;;15.62;17.77
13478;BME280;12598;62.382;17.344;2023-04-03T01:19:00;103706.81;;;15.62;17.56
13478;BME280;12598;62.382;17.344;2023-04-03T01:25:37;103700.44;;;15.66;17.60
13478;BME280;12598;62.382;17.344;2023-04-03T01:26:39;103697.09;;;15.61;17.35
13478;BME280;12598;62.382;17.344;2023-04-03T01:27:42;103704.28;;;15.59;17.73
13478;BME280;12598;62.382;17.344;2023-04-03T01:28:43;103701.81;;;15.54;17.59
13478;BME280;12598;62.382;17.344;2023-04-03T01:29:46;103700.94;;;15.54;17.63
13478;BME280;12598;62.382;17.344;2023-04-03T01:32:09;103693.84;;;15.53;17.64
13478;BME280;12598;62.382;17.344;2023-04-03T01:33:11;103702.66;;;15.55;17.66
13478;BME280;12598;62.382;17.344;2023-04-03T01:34:13;103709.00;;;15.52;17.56
13478;BME280;12598;62.382;17.344;2023-04-03T01:35:15;103705.50;;;15.50;17.66
13478;BME280;12598;62.382;17.344;2023-04-03T01:36:23;103703.72;;;15.51;17.52
13478;BME280;12598;62.382;17.344;2023-04-03T01:37:26;103698.56;;;15.46;17.35
13478;BME280;12598;62.382;17.344;2023-04-03T01:38:27;103698.50;;;15.48;17.59
13478;BME280;12598;62.382;17.344;2023-04-03T01:39:29;103687.28;;;15.40;17.49
13478;BME280;12598;62.382;17.344;2023-04-03T01:40:31;103694.03;;;15.48;17.69
13478;BME280;12598;62.382;17.344;2023-04-03T01:41:33;103682.09;;;15.35;17.23
13478;BME280;12598;62.382;17.344;2023-04-03T01:42:43;103688.94;;;15.42;17.42
13478;BME280;12598;62.382;17.344;2023-04-03T01:43:47;103702.09;;;15.47;17.70
13478;BME280;12598;62.382;17.344;2023-04-03T01:44:49;103673.25;;;15.35;17.64
13478;BME280;12598;62.382;17.344;2023-04-03T01:45:51;103701.28;;;15.45;17.76
13478;BME280;12598;62.382;17.344;2023-04-03T01:46:56;103701.16;;;15.48;18.11
13478;BME280;12598;62.382;17.344;2023-04-03T01:47:59;103693.47;;;15.40;17.44
13478;BME280;12598;62.382;17.344;2023-04-03T01:49:02;103703.88;;;15.46;17.69
13478;BME280;12598;62.382;17.344;2023-04-03T01:50:04;103701.28;;;15.45;17.46
13478;BME280;12598;62.382;17.344;2023-04-03T01:51:08;103701.28;;;15.45;17.48
13478;BME280;12598;62.382;17.344;2023-04-03T01:52:10;103704.88;;;15.44;17.53
13478;BME280;12598;62.382;17.344;2023-04-03T01:53:12;103701.34;;;15.43;17.34
13478;BME280;12598;62.382;17.344;2023-04-03T01:54:14;103704.09;;;15.42;17.46
13478;BME280;12598;62.382;17.344;2023-04-03T01:55:16;103677.06;;;15.28;17.81
13478;BME280;12598;62.382;17.344;2023-04-03T01:56:19;103703.19;;;15.41;17.43
13478;BME280;12598;62.382;17.344;2023-04-03T01:57:22;103699.69;;;15.41;17.81
13478;BME280;12598;62.382;17.344;2023-04-03T01:58:24;103697.94;;;15.40;17.53
13478;BME280;12598;62.382;17.344;2023-04-03T01:59:27;103697.94;;;15.40;17.39
13478;BME280;12598;62.382;17.344;2023-04-03T02:00:29;103702.34;;;15.41;17.70
13478;BME280;12598;62.382;17.344;2023-04-03T02:01:32;103695.19;;;15.41;17.59
13478;BME280;12598;62.382;17.344;2023-04-03T02:02:34;103697.94;;;15.40;17.79
13478;BME280;12598;62.382;17.344;2023-04-03T02:03:36;103698.88;;;15.39;17.62
13478;BME280;12598;62.382;17.344;2023-04-03T02:04:38;103696.19;;;15.39;17.55
13478;BME280;12598;62.382;17.344;2023-04-03T02:05:40;103696.25;;;15.37;17.47
13478;BME280;12598;62.382;17.344;2023-04-03T02:06:42;103695.41;;;15.37;17.79
13478;BME280;12598;62.382;17.344;2023-04-03T02:07:44;103698.06;;;15.37;17.73
13478;BME280;12598;62.382;17.344;2023-04-03T02:08:46;103676.19;;;15.27;17.56
13478;BME280;12598;62.382;17.344;2023-04-03T02:09:48;103680.53;;;15.30;17.60
13478;BME280;12598;62.382;17.344;2023-04-03T02:10:51;103695.44;;;15.35;17.58
13478;BME280;12598;62.382;17.344;2023-04-03T02:11:53;103695.44;;;15.35;17.43
13478;BME280;12598;62.382;17.344;2023-04-03T02:12:55;103692.91;;;15.32;17.50
13478;BME280;12598;62.382;17.344;2023-04-03T02:13:57;103698.19;;;15.34;17.61
13478;BME280;12598;62.382;17.344;2023-04-03T02:14:59;103691.97;;;15.33;17.37
13478;BME280;12598;62.382;17.344;2023-04-03T02:16:07;103695.63;;;15.31;17.42
13478;BME280;12598;62.382;17.344;2023-04-03T02:17:09;103694.59;;;15.35;17.23
13478;BME280;12598;62.382;17.344;2023-04-03T02:18:11;103698.19;;;15.34;17.19
13478;BME280;12598;62.382;17.344;2023-04-03T02:19:13;103698.19;;;15.34;17.43
13478;BME280;12598;62.382;17.344;2023-04-03T02:20:16;103685.22;;;15.23;17.28
13478;BME280;12598;62.382;17.344;2023-04-03T02:21:18;103697.38;;;15.32;17.89
13478;BME280;12598;62.382;17.344;2023-04-03T02:22:20;103692.09;;;15.30;17.33
13478;BME280;12598;62.382;17.344;2023-04-03T02:23:21;103698.31;;;15.31;17.27
13478;BME280;12598;62.382;17.344;2023-04-03T02:24:25;103687.81;;;15.25;17.37
13478;BME280;12598;62.382;17.344;2023-04-03T02:25:27;103696.53;;;15.30;17.58
13478;BME280;12598;62.382;17.344;2023-04-03T02:26:28;103697.47;;;15.29;17.48
13478;BME280;12598;62.382;17.344;2023-04-03T02:27:30;103691.41;;;15.24;17.61
13478;BME280;12598;62.382;17.344;2023-04-03T02:28:33;103702.84;;;15.27;17.69
13478;BME280;12598;62.382;17.344;2023-04-03T02:29:35;103696.63;;;15.27;17.68
13478;BME280;12598;62.382;17.344;2023-04-03T02:30:38;103701.00;;;15.29;17.50
13478;BME280;12598;62.382;17.344;2023-04-03T02:31:41;103699.28;;;15.27;17.24
13478;BME280;12598;62.382;17.344;2023-04-03T02:32:43;103684.56;;;15.17;17.18
13478;BME280;12598;62.382;17.344;2023-04-03T02:33:45;103707.28;;;15.27;17.71
13478;BME280;12598;62.382;17.344;2023-04-03T02:34:49;103703.72;;;15.28;17.68
13478;BME280;12598;62.382;17.344;2023-04-03T02:35:55;103693.16;;;15.25;17.49
13478;BME280;12598;62.382;17.344;2023-04-03T02:36:57;103695.81;;;15.25;17.66
13478;BME280;12598;62.382;17.344;2023-04-03T02:37:59;103690.78;;;15.17;17.68
13478;BME280;12598;62.382;17.344;2023-04-03T02:39:01;103704.72;;;15.24;17.53
13478;BME280;12598;62.382;17.344;2023-04-03T02:40:05;103701.38;;;15.19;17.35
13478;BME280;12598;62.382;17.344;2023-04-03T02:41:10;103702.06;;;15.24;17.73
13478;BME280;12598;62.382;17.344;2023-04-03T02:42:12;103680.19;;;15.16;17.67
13478;BME280;12598;62.382;17.344;2023-04-03T02:43:14;103705.66;;;15.23;17.45
13478;BME280;12598;62.382;17.344;2023-04-03T02:44:17;103688.81;;;15.22;17.46
13478;BME280;12598;62.382;17.344;2023-04-03T02:45:20;103698.59;;;15.22;17.39
13478;BME280;12598;62.382;17.344;2023-04-03T02:46:22;103683.59;;;15.19;17.55
13478;BME280;12598;62.382;17.344;2023-04-03T02:47:24;103690.69;;;15.20;17.72
13478;BME280;12598;62.382;17.344;2023-04-03T02:48:26;103682.81;;;15.17;17.30
13478;BME280;12598;62.382;17.344;2023-04-03T02:49:28;103691.53;;;15.21;17.53
13478;BME280;12598;62.382;17.344;2023-04-03T02:50:30;103695.13;;;15.20;17.24
13478;BME280;12598;62.382;17.344;2023-04-03T02:51:32;103684.53;;;15.18;17.30
13478;BME280;12598;62.382;17.344;2023-04-03T02:52:34;103687.13;;;15.20;17.37
13478;BME280;12598;62.382;17.344;2023-04-03T02:53:36;103670.56;;;15.12;17.50
13478;BME280;12598;62.382;17.344;2023-04-03T02:54:44;103681.78;;;15.20;17.38
13478;BME280;12598;62.382;17.344;2023-04-03T02:55:46;103675.78;;;15.15;17.53
13478;BME280;12598;62.382;17.344;2023-04-03T02:56:49;103662.13;;;15.01;17.43
13478;BME280;12598;62.382;17.344;2023-04-03T02:57:50;103696.06;;;15.19;17.63
13478;BME280;12598;62.382;17.344;2023-04-03T02:58:52;103696.97;;;15.18;17.22
13478;BME280;12598;62.382;17.344;2023-04-03T02:59:55;103696.97;;;15.18;17.21
13478;BME280;12598;62.382;17.344;2023-04-03T03:00:57;103699.66;;;15.18;17.64
13478;BME280;12598;62.382;17.344;2023-04-03T03:01:59;103695.25;;;15.17;17.12
13478;BME280;12598;62.382;17.344;2023-04-03T03:03:01;103677.06;;;15.05;17.64
13478;BME280;12598;62.382;17.344;2023-04-03T03:04:03;103694.38;;;15.16;17.50
13478;BME280;12598;62.382;17.344;2023-04-03T03:05:05;103696.25;;;15.14;17.50
13478;BME280;12598;62.382;17.344;2023-04-03T03:06:09;103696.28;;;15.13;17.46
13478;BME280;12598;62.382;17.344;2023-04-03T03:07:13;103690.16;;;15.11;17.56
13478;BME280;12598;62.382;17.344;2023-04-03T03:08:15;103704.16;;;15.16;17.50
13478;BME280;12598;62.382;17.344;2023-04-03T03:09:18;103699.06;;;15.10;17.45
13478;BME280;12598;62.382;17.344;2023-04-03T03:10:20;103686.78;;;15.06;17.39
13478;BME280;12598;62.382;17.344;2023-04-03T03:11:22;103696.28;;;15.13;17.29
13478;BME280;12598;62.382;17.344;2023-04-03T03:12:24;103698.94;;;15.13;17.63
13478;BME280;12598;62.382;17.344;2023-04-03T03:13:26;103704.28;;;15.13;17.68
13478;BME280;12598;62.382;17.344;2023-04-03T03:14:28;103709.63;;;15.13;17.59
13478;BME280;12598;62.382;17.344;2023-04-03T03:15:30;103703.47;;;15.11;17.63
13478;BME280;12598;62.382;17.344;2023-04-03T03:16:31;103703.47;;;15.11;17.56
13478;BME280;12598;62.382;17.344;2023-04-03T03:17:33;103692.13;;;15.06;17.62
13478;BME280;12598;62.382;17.344;2023-04-03T03:18:38;103702.53;;;15.12;17.25
13478;BME280;12598;62.382;17.344;2023-04-03T03:19:40;103692.25;;;15.03;17.39
13478;BME280;12598;62.382;17.344;2023-04-03T03:20:42;103694.66;;;15.09;17.47
13478;BME280;12598;62.382;17.344;2023-04-03T03:21:44;103680.00;;;14.97;17.39
13478;BME280;12598;62.382;17.344;2023-04-03T03:22:46;103696.41;;;15.10;17.38
13478;BME280;12598;62.382;17.344;2023-04-03T03:23:48;103695.47;;;15.11;17.27
13478;BME280;12598;62.382;17.344;2023-04-03T03:24:50;103704.41;;;15.10;17.47
13478;BME280;12598;62.382;17.344;2023-04-03T03:26:05;103689.47;;;15.06;17.33
13478;BME280;12598;62.382;17.344;2023-04-03T03:27:08;103703.34;;;15.14;17.34
13478;BME280;12598;62.382;17.344;2023-04-03T03:28:10;103702.53;;;15.12;17.45
13478;BME280;12598;62.382;17.344;2023-04-03T03:29:12;103683.31;;;15.04;17.49
13478;BME280;12598;62.382;17.344;2023-04-03T03:30:14;103696.44;;;15.08;17.17
13478;BME280;12598;62.382;17.344;2023-04-03T03:31:16;103692.25;;;15.03;17.65
13478;BME280;12598;62.382;17.344;2023-04-03T03:32:18;103700.94;;;15.08;17.34
13478;BME280;12598;62.382;17.344;2023-04-03T03:33:20;103692.97;;;15.06;17.24
13478;BME280;12598;62.382;17.344;2023-04-03T03:34:22;103692.03;;;15.07;17.17
13478;BME280;12598;62.382;17.344;2023-04-03T03:35:24;103700.13;;;15.06;17.72
13478;BME280;12598;62.382;17.344;2023-04-03T03:36:26;103687.03;;;15.00;17.79
13478;BME280;12598;62.382;17.344;2023-04-03T03:37:28;103699.31;;;15.04;17.62
13478;BME280;12598;62.382;17.344;2023-04-03T03:38:30;103706.38;;;15.05;17.90
13478;BME280;12598;62.382;17.344;2023-04-03T03:39:33;103702.78;;;15.06;17.23
13478;BME280;12598;62.382;17.344;2023-04-03T03:40:35;103697.69;;;15.00;17.67
13478;BME280;12598;62.382;17.344;2023-04-03T03:41:37;103704.63;;;15.04;17.61
13478;BME280;12598;62.382;17.344;2023-04-03T03:42:39;103704.63;;;15.04;17.13
13478;BME280;12598;62.382;17.344;2023-04-03T03:43:41;103708.22;;;15.03;17.21
13478;BME280;12598;62.382;17.344;2023-04-03T03:44:44;103709.97;;;15.04;17.18
13478;BME280;12598;62.382;17.344;2023-04-03T03:45:51;103702.91;;;15.03;17.59
13478;BME280;12598;62.382;17.344;2023-04-03T03:46:53;103706.41;;;15.03;17.52
13478;BME280;12598;62.382;17.344;2023-04-03T03:47:56;103695.81;;;15.02;17.31
13478;BME280;12598;62.382;17.344;2023-04-03T03:48:58;103699.41;;;15.01;17.40
13478;BME280;12598;62.382;17.344;2023-04-03T03:50:01;103701.16;;;15.02;17.15
13478;BME280;12598;62.382;17.344;2023-04-03T03:51:04;103701.16;;;15.02;17.43
13478;BME280;12598;62.382;17.344;2023-04-03T03:52:09;103696.69;;;15.02;17.63
13478;BME280;12598;62.382;17.344;2023-04-03T03:53:12;103698.50;;;15.02;17.72
13478;BME280;12598;62.382;17.344;2023-04-03T03:54:14;103702.00;;;15.02;17.23
13478;BME280;12598;62.382;17.344;2023-04-03T03:55:18;103699.41;;;15.01;17.27
13478;BME280;12598;62.382;17.344;2023-04-03T03:56:25;103695.81;;;15.02;17.43
13478;BME280;12598;62.382;17.344;2023-04-03T03:57:27;103699.41;;;15.01;17.45
13478;BME280;12598;62.382;17.344;2023-04-03T03:58:30;103688.06;;;14.96;17.58
13478;BME280;12598;62.382;17.344;2023-04-03T03:59:32;103697.69;;;15.00;17.39
13478;BME280;12598;62.382;17.344;2023-04-03T04:00:34;103697.81;;;14.97;17.24
13478;BME280;12598;62.382;17.344;2023-04-03T04:01:37;103703.88;;;15.00;17.89
13478;BME280;12598;62.382;17.344;2023-04-03T04:02:39;103699.53;;;14.98;17.49
13478;BME280;12598;62.382;17.344;2023-04-03T04:03:43;103703.94;;;14.99;17.14
13478;BME280;12598;62.382;17.344;2023-04-03T04:04:48;103693.41;;;14.96;17.15
13478;BME280;12598;62.382;17.344;2023-04-03T04:05:50;103691.69;;;14.93;17.59
13478;BME280;12598;62.382;17.344;2023-04-03T04:06:52;103678.63;;;14.87;17.27
13478;BME280;12598;62.382;17.344;2023-04-03T04:07:54;103695.13;;;14.97;17.67
13478;BME280;12598;62.382;17.344;2023-04-03T04:08:57;103684.63;;;14.92;17.49
13478;BME280;12598;62.382;17.344;2023-04-03T04:09:59;103694.31;;;14.95;17.55
13478;BME280;12598;62.382;17.344;2023-04-03T04:11:01;103676.91;;;14.85;17.36
13478;BME280;12598;62.382;17.344;2023-04-03T04:12:03;103700.50;;;14.95;17.23
13478;BME280;12598;62.382;17.344;2023-04-03T04:13:06;103693.41;;;14.96;17.34
13478;BME280;12598;62.382;17.344;2023-04-03T04:14:08;103696.06;;;14.96;17.42
13478;BME280;12598;62.382;17.344;2023-04-03T04:15:12;103683.06;;;14.87;17.46
13478;BME280;12598;62.382;17.344;2023-04-03T04:16:14;103696.19;;;14.93;17.25
13478;BME280;12598;62.382;17.344;2023-04-03T04:17:17;103697.84;;;14.95;17.31
13478;BME280;12598;62.382;17.344;2023-04-03T04:18:19;103694.31;;;14.95;17.09
13478;BME280;12598;62.382;17.344;2023-04-03T04:19:23;103698.78;;;14.94;17.17
13478;BME280;12598;62.382;17.344;2023-04-03T04:20:25;103703.25;;;14.94;17.73
13478;BME280;12598;62.382;17.344;2023-04-03T04:21:27;103688.47;;;14.85;17.57
13478;BME280;12598;62.382;17.344;2023-04-03T04:22:30;103701.50;;;14.93;17.29
13478;BME280;12598;62.382;17.344;2023-04-03T04:23:33;103698.03;;;14.91;17.15
13478;BME280;12598;62.382;17.344;2023-04-03T04:24:35;103697.25;;;14.87;17.57
13478;BME280;12598;62.382;17.344;2023-04-03T04:25:44;103700.69;;;14.91;17.70
13478;BME280;12598;62.382;17.344;2023-04-03T04:26:46;103698.88;;;14.91;17.10
13478;BME280;12598;62.382;17.344;2023-04-03T04:27:50;103691.00;;;14.88;17.29
13478;BME280;12598;62.382;17.344;2023-04-03T04:28:52;103702.47;;;14.90;17.31
13478;BME280;12598;62.382;17.344;2023-04-03T04:29:54;103698.88;;;14.91;17.06
13478;BME280;12598;62.382;17.344;2023-04-03T04:30:59;103698.88;;;14.91;17.38
13478;BME280;12598;62.382;17.344;2023-04-03T04:32:03;103658.03;;;14.68;17.21
13478;BME280;12598;62.382;17.344;2023-04-03T04:33:05;103676.09;;;14.83;17.52
13478;BME280;12598;62.382;17.344;2023-04-03T04:34:08;103676.09;;;14.83;17.62
13478;BME280;12598;62.382;17.344;2023-04-03T04:35:11;103687.44;;;14.88;17.29
13478;BME280;12598;62.382;17.344;2023-04-03T04:36:19;103688.34;;;14.88;17.08
13478;BME280;12598;62.382;17.344;2023-04-03T04:37:22;103694.56;;;14.89;17.11
13478;BME280;12598;62.382;17.344;2023-04-03T04:38:24;103698.09;;;14.88;17.72
13478;BME280;12598;62.382;17.344;2023-04-03T04:39:27;103668.34;;;14.77;17.37
13478;BME280;12598;62.382;17.344;2023-04-03T04:40:31;103683.06;;;14.87;17.30
13478;BME280;12598;62.382;17.344;2023-04-03T04:41:34;103681.31;;;14.86;17.16
13478;BME280;12598;62.382;17.344;2023-04-03T04:42:37;103681.31;;;14.86;16.99
13478;BME280;12598;62.382;17.344;2023-04-03T04:43:40;103677.84;;;14.84;17.34
13478;BME280;12598;62.382;17.344;2023-04-03T04:44:44;103679.56;;;14.85;17.64
13478;BME280;12598;62.382;17.344;2023-04-03T04:45:47;103677.78;;;14.85;17.07
13478;BME280;12598;62.382;17.344;2023-04-03T04:46:53;103683.16;;;14.84;17.51
13478;BME280;12598;62.382;17.344;2023-04-03T04:47:55;103680.50;;;14.84;17.59
13478;BME280;12598;62.382;17.344;2023-04-03T04:48:59;103673.44;;;14.83;17.30
13478;BME280;12598;62.382;17.344;2023-04-03T04:50:03;103677.91;;;14.82;17.50
13478;BME280;12598;62.382;17.344;2023-04-03T04:51:06;103678.75;;;14.83;17.17
13478;BME280;12598;62.382;17.344;2023-04-03T04:52:10;103679.78;;;14.80;17.19
13478;BME280;12598;62.382;17.344;2023-04-03T04:53:15;103677.03;;;14.82;17.43
13478;BME280;12598;62.382;17.344;2023-04-03T04:54:17;103664.00;;;14.75;17.40
13478;BME280;12598;62.382;17.344;2023-04-03T04:55:21;103675.28;;;14.81;17.38
13478;BME280;12598;62.382;17.344;2023-04-03T04:56:24;103661.38;;;14.73;17.50
13478;BME280;12598;62.382;17.344;2023-04-03T04:57:29;103667.50;;;14.77;17.21
13478;BME280;12598;62.382;17.344;2023-04-03T04:58:33;103677.03;;;14.82;16.96
13478;BME280;12598;62.382;17.344;2023-04-03T04:59:36;103675.28;;;14.81;17.17
13478;BME280;12598;62.382;17.344;2023-04-03T05:00:39;103674.38;;;14.82;17.15
13478;BME280;12598;62.382;17.344;2023-04-03T05:01:42;103678.84;;;14.81;17.72
13478;BME280;12598;62.382;17.344;2023-04-03T05:02:49;103665.63;;;14.78;17.66
13478;BME280;12598;62.382;17.344;2023-04-03T05:03:53;103671.88;;;14.77;17.47
13478;BME280;12598;62.382;17.344;2023-04-03T05:04:56;103673.56;;;14.80;17.25
13478;BME280;12598;62.382;17.344;2023-04-03T05:06:02;103662.19;;;14.75;17.60
13478;BME280;12598;62.382;17.344;2023-04-03T05:07:05;103673.56;;;14.80;17.48
13478;BME280;12598;62.382;17.344;2023-04-03T05:08:10;103661.38;;;14.73;17.34
13478;BME280;12598;62.382;17.344;2023-04-03T05:09:14;103656.88;;;14.75;17.30
13478;BME280;12598;62.382;17.344;2023-04-03T05:10:17;103669.03;;;14.82;17.68
13478;BME280;12598;62.382;17.344;2023-04-03T05:11:20;103667.25;;;14.82;17.39
13478;BME280;12598;62.382;17.344;2023-04-03T05:12:26;103664.53;;;14.84;17.30
13478;BME280;12598;62.382;17.344;2023-04-03T05:13:32;103658.22;;;14.86;17.18
13478;BME280;12598;62.382;17.344;2023-04-03T05:14:34;103664.41;;;14.87;17.15
13478;BME280;12598;62.382;17.344;2023-04-03T05:15:40;103661.66;;;14.90;17.23
13478;BME280;12598;62.382;17.344;2023-04-03T05:16:42;103665.16;;;14.90;17.26
13478;BME280;12598;62.382;17.344;2023-04-03T05:17:44;103645.06;;;14.82;17.31
13478;BME280;12598;62.382;17.344;2023-04-03T05:18:48;103654.34;;;14.95;17.47
13478;BME280;12598;62.382;17.344;2023-04-03T05:19:53;103650.69;;;14.97;17.31
13478;BME280;12598;62.382;17.344;2023-04-03T05:20:57;103618.44;;;14.82;17.47
13478;BME280;12598;62.382;17.344;2023-04-03T05:22:00;103639.06;;;15.00;17.52
13478;BME280;12598;62.382;17.344;2023-04-03T05:23:03;103642.53;;;15.02;17.34
13478;BME280;12598;62.382;17.344;2023-04-03T05:24:08;103644.97;;;15.08;17.02
13478;BME280;12598;62.382;17.344;2023-04-03T05:25:14;103650.97;;;15.13;17.54
13478;BME280;12598;62.382;17.344;2023-04-03T05:26:18;103648.19;;;15.16;17.21
13478;BME280;12598;62.382;17.344;2023-04-03T05:27:22;103643.66;;;15.18;17.32
13478;BME280;12598;62.382;17.344;2023-04-03T05:28:28;103628.84;;;15.11;17.33
13478;BME280;12598;62.382;17.344;2023-04-03T05:29:30;103648.75;;;15.24;17.46
13478;BME280;12598;62.382;17.344;2023-04-03T05:30:33;103648.63;;;15.27;17.51
13478;BME280;12598;62.382;17.344;2023-04-03T05:31:38;103644.09;;;15.30;17.45
13478;BME280;12598;62.382;17.344;2023-04-03T05:32:42;103641.31;;;15.33;17.13
13478;BME280;12598;62.382;17.344;2023-04-03T05:33:51;103645.53;;;15.39;16.90